createdAt,value
2022-11-13T00:01:13.535Z,57.67
2022-11-13T00:03:40.244Z,86.18
2022-11-13T00:06:07.079Z,54.47
2022-11-13T00:08:35.119Z,52.20
2022-11-13T00:11:07.764Z,53.20
2022-11-13T00:13:35.492Z,65.88
2022-11-13T00:16:10.534Z,56.88
2022-11-13T00:18:38.476Z,45.22
2022-11-13T00:21:11.351Z,53.60
2022-11-13T00:23:38.014Z,55.70
2022-11-13T00:26:07.359Z,59.05
2022-11-13T00:28:33.954Z,69.95
2022-11-13T00:31:02.581Z,57.42
2022-11-13T00:33:53.567Z,49.40
2022-11-13T00:36:26.850Z,74.78
2022-11-13T00:38:54.656Z,56.42
2022-11-13T00:41:25.985Z,55.15
2022-11-13T00:43:52.906Z,49.33
2022-11-13T00:46:24.944Z,47.80
2022-11-13T00:48:55.021Z,46.40
2022-11-13T00:51:21.938Z,47.95
2022-11-13T00:53:48.694Z,49.85
2022-11-13T00:56:15.952Z,52.08
2022-11-13T00:58:42.538Z,44.17
2022-11-13T01:01:16.517Z,38.63
2022-11-13T01:03:43.565Z,50.03
2022-11-13T01:06:17.777Z,55.92
2022-11-13T01:09:00.141Z,46.40
2022-11-13T01:11:39.318Z,37.55
2022-11-13T01:14:06.332Z,37.22
2022-11-13T01:16:33.268Z,38.03
2022-11-13T01:19:00.248Z,41.00
2022-11-13T01:21:29.093Z,29.80
2022-11-13T01:23:59.085Z,35.22
2022-11-13T01:26:35.683Z,31.85
2022-11-13T01:29:02.409Z,27.42
2022-11-13T01:31:30.900Z,36.75
2022-11-13T01:33:58.007Z,30.58
2022-11-13T01:36:28.399Z,47.40
2022-11-13T01:38:56.005Z,38.35
2022-11-13T01:41:28.991Z,32.00
2022-11-13T01:43:56.313Z,31.23
2022-11-13T01:46:31.201Z,30.65
2022-11-13T01:49:09.693Z,28.05
2022-11-13T01:51:50.656Z,34.83
2022-11-13T01:54:21.935Z,30.08
2022-11-13T01:59:25.298Z,28.05
2022-11-13T02:01:52.444Z,26.52
2022-11-13T02:04:19.052Z,28.10
2022-11-13T02:06:53.476Z,26.33
2022-11-13T02:09:24.725Z,28.05
2022-11-13T02:11:52.323Z,30.27
2022-11-13T02:14:21.908Z,26.35
2022-11-13T02:16:51.330Z,26.00
2022-11-13T02:19:26.344Z,23.77
2022-11-13T02:22:06.913Z,24.13
2022-11-13T02:24:42.031Z,23.60
2022-11-13T02:32:08.714Z,23.95
2022-11-13T02:34:35.431Z,24.85
2022-11-13T02:37:01.920Z,25.23
2022-11-13T02:39:28.364Z,22.92
2022-11-13T02:41:54.992Z,25.65
2022-11-13T02:44:21.460Z,26.05
2022-11-13T02:46:47.963Z,25.58
2022-11-13T02:49:14.456Z,27.75
2022-11-13T02:51:40.851Z,26.08
2022-11-13T02:54:07.291Z,30.48
2022-11-13T02:56:33.737Z,26.65
2022-11-13T02:59:00.230Z,27.40
2022-11-13T03:01:26.678Z,32.25
2022-11-13T03:03:57.825Z,25.77
2022-11-13T03:06:25.074Z,35.72
2022-11-13T03:08:51.502Z,43.78
2022-11-13T03:11:17.946Z,55.97
2022-11-13T03:13:44.421Z,29.38
2022-11-13T03:16:13.707Z,26.30
2022-11-13T03:18:40.722Z,26.60
2022-11-13T03:21:09.966Z,39.67
2022-11-13T03:23:37.055Z,27.17
2022-11-13T03:26:09.561Z,39.95
2022-11-13T03:28:36.819Z,32.47
2022-11-13T03:31:04.479Z,32.47
2022-11-13T03:33:31.113Z,28.15
2022-11-13T03:35:57.858Z,28.10
2022-11-13T03:38:24.862Z,24.60
2022-11-13T03:40:52.030Z,29.00
2022-11-13T03:43:18.873Z,31.10
2022-11-13T03:45:46.753Z,42.75
2022-11-13T03:48:14.843Z,27.83
2022-11-13T03:50:47.796Z,23.85
2022-11-13T03:53:14.904Z,26.98
2022-11-13T03:55:42.042Z,23.63
2022-11-13T03:58:09.213Z,31.10
2022-11-13T04:00:37.053Z,24.10
2022-11-13T04:03:03.703Z,24.77
2022-11-13T04:05:30.459Z,26.80
2022-11-13T04:07:57.073Z,24.52
2022-11-13T04:10:23.852Z,24.45
2022-11-13T04:12:50.447Z,23.33
2022-11-13T04:15:17.627Z,24.85
2022-11-13T04:17:44.344Z,26.90
2022-11-13T04:20:11.693Z,28.85
2022-11-13T04:22:38.406Z,38.03
2022-11-13T04:25:06.665Z,24.20
2022-11-13T04:27:33.709Z,29.08
2022-11-13T04:30:00.431Z,29.63
2022-11-13T04:32:27.263Z,31.10
2022-11-13T04:34:53.755Z,35.45
2022-11-13T04:37:20.236Z,31.52
2022-11-13T04:39:46.697Z,29.17
2022-11-13T04:42:31.611Z,20.80
2022-11-13T04:44:58.295Z,23.80
2022-11-13T04:47:25.005Z,21.38
2022-11-13T04:49:51.508Z,29.55
2022-11-13T04:52:18.080Z,20.92
2022-11-13T04:54:44.508Z,23.95
2022-11-13T04:57:11.106Z,33.75
2022-11-13T04:59:37.621Z,39.72
2022-11-13T05:02:04.473Z,23.38
2022-11-13T05:04:31.038Z,20.63
2022-11-13T05:06:57.597Z,20.50
2022-11-13T05:09:24.063Z,18.55
2022-11-13T05:11:50.690Z,43.55
2022-11-13T05:14:17.169Z,46.92
2022-11-13T05:16:43.657Z,51.80
2022-11-13T05:19:10.526Z,42.05
2022-11-13T05:21:39.713Z,25.60
2022-11-13T05:24:06.647Z,34.90
2022-11-13T05:26:33.178Z,46.75
2022-11-13T05:29:00.814Z,23.05
2022-11-13T05:31:27.628Z,26.23
2022-11-13T05:33:54.711Z,22.15
2022-11-13T05:36:22.401Z,25.25
2022-11-13T05:38:49.451Z,34.20
2022-11-13T05:41:20.589Z,20.65
2022-11-13T05:43:47.513Z,26.08
2022-11-13T05:46:32.081Z,20.10
2022-11-13T05:51:32.535Z,20.00
2022-11-13T05:54:00.041Z,26.08
2022-11-13T05:56:32.006Z,24.95
2022-11-13T05:59:00.291Z,18.00
2022-11-13T06:01:36.055Z,34.40
2022-11-13T06:04:03.841Z,29.92
2022-11-13T06:06:31.825Z,36.13
2022-11-13T06:09:00.319Z,18.00
2022-11-13T06:11:29.123Z,21.38
2022-11-13T06:13:56.926Z,24.15
2022-11-13T06:16:28.056Z,23.83
2022-11-13T06:18:57.334Z,21.20
2022-11-13T06:21:27.256Z,21.98
2022-11-13T06:23:54.138Z,19.08
2022-11-13T06:26:24.240Z,31.60
2022-11-13T06:28:51.082Z,29.50
2022-11-13T06:31:26.319Z,18.05
2022-11-13T06:33:53.222Z,22.83
2022-11-13T06:36:26.064Z,35.83
2022-11-13T06:38:53.048Z,22.88
2022-11-13T06:41:22.402Z,27.40
2022-11-13T06:43:49.698Z,18.38
2022-11-13T06:46:21.955Z,19.33
2022-11-13T06:48:51.837Z,24.45
2022-11-13T06:51:20.816Z,18.45
2022-11-13T06:53:47.654Z,20.17
2022-11-13T06:56:15.119Z,17.80
2022-11-13T06:58:43.761Z,25.15
2022-11-13T07:01:13.376Z,27.00
2022-11-13T07:03:40.345Z,17.08
2022-11-13T07:06:10.443Z,18.55
2022-11-13T07:08:37.178Z,17.75
2022-11-13T07:11:04.923Z,18.75
2022-11-13T07:13:31.689Z,21.20
2022-11-13T07:16:15.924Z,19.52
2022-11-13T07:18:44.215Z,17.48
2022-11-13T07:21:13.185Z,22.05
2022-11-13T07:23:43.714Z,17.50
2022-11-13T07:26:13.752Z,19.40
2022-11-13T07:28:40.536Z,17.35
2022-11-13T07:31:08.015Z,19.20
2022-11-13T07:33:34.629Z,18.00
2022-11-13T07:36:01.223Z,16.20
2022-11-13T07:38:28.224Z,15.18
2022-11-13T07:40:57.338Z,24.00
2022-11-13T07:43:23.861Z,22.95
2022-11-13T07:45:54.600Z,16.95
2022-11-13T07:48:24.849Z,18.20
2022-11-13T07:50:51.506Z,17.85
2022-11-13T07:53:19.463Z,16.70
2022-11-13T07:55:46.138Z,17.63
2022-11-13T07:58:12.849Z,16.35
2022-11-13T08:00:39.911Z,16.00
2022-11-13T08:03:12.879Z,19.50
2022-11-13T08:05:40.430Z,18.48
2022-11-13T08:08:08.592Z,28.63
2022-11-13T08:10:35.921Z,22.50
2022-11-13T08:13:07.986Z,17.83
2022-11-13T08:15:35.410Z,17.48
2022-11-13T08:18:03.754Z,16.83
2022-11-13T08:20:33.411Z,15.38
2022-11-13T08:23:01.559Z,14.18
2022-11-13T08:25:29.346Z,16.48
2022-11-13T08:27:56.418Z,12.30
2022-11-13T08:30:24.844Z,13.98
2022-11-13T08:32:51.729Z,12.13
2022-11-13T08:35:20.321Z,13.35
2022-11-13T08:37:48.701Z,13.27
2022-11-13T08:40:18.124Z,12.50
2022-11-13T08:42:46.072Z,11.57
2022-11-13T08:45:12.913Z,13.10
2022-11-13T08:47:39.426Z,13.77
2022-11-13T08:50:09.832Z,12.63
2022-11-13T08:52:36.823Z,11.35
2022-11-13T08:55:05.621Z,12.55
2022-11-13T08:57:32.189Z,12.05
2022-11-13T08:59:58.729Z,13.98
2022-11-13T09:02:25.708Z,15.80
2022-11-13T09:04:52.366Z,14.02
2022-11-13T09:07:26.030Z,13.65
2022-11-13T09:09:53.799Z,14.13
2022-11-13T09:12:20.236Z,15.20
2022-11-13T09:14:46.776Z,13.35
2022-11-13T09:17:13.333Z,10.88
2022-11-13T09:19:40.019Z,10.90
2022-11-13T09:22:06.470Z,12.90
2022-11-13T09:24:32.898Z,12.30
2022-11-13T09:26:59.689Z,11.07
2022-11-13T09:29:28.438Z,12.75
2022-11-13T09:31:55.665Z,11.73
2022-11-13T09:34:22.796Z,11.90
2022-11-13T09:36:49.321Z,13.88
2022-11-13T09:39:18.990Z,12.35
2022-11-13T09:42:14.082Z,12.48
2022-11-13T09:44:47.760Z,14.32
2022-11-13T09:47:20.833Z,12.32
2022-11-13T09:49:52.092Z,11.32
2022-11-13T09:52:36.659Z,11.13
2022-11-13T09:55:04.659Z,10.60
2022-11-13T09:57:40.076Z,10.52
2022-11-13T10:00:12.688Z,11.93
2022-11-13T10:02:53.532Z,12.23
2022-11-13T10:05:39.655Z,13.57
2022-11-13T10:08:19.902Z,12.52
2022-11-13T10:11:09.215Z,10.70
2022-11-13T10:13:44.964Z,13.45
2022-11-13T10:16:36.265Z,16.38
2022-11-13T10:19:30.213Z,14.75
2022-11-13T10:22:31.646Z,13.20
2022-11-13T10:25:01.958Z,13.70
2022-11-13T10:27:28.870Z,13.40
2022-11-13T10:29:56.614Z,12.95
2022-11-13T10:32:33.312Z,13.48
2022-11-13T10:35:12.793Z,12.55
2022-11-13T10:37:59.986Z,12.88
2022-11-13T10:40:41.482Z,13.45
2022-11-13T10:43:22.455Z,15.82
2022-11-13T10:46:01.393Z,13.48
2022-11-13T10:48:34.367Z,13.95
2022-11-13T10:51:19.897Z,14.15
2022-11-13T10:53:47.524Z,14.95
2022-11-13T10:56:14.621Z,12.45
2022-11-13T10:58:41.178Z,12.95
2022-11-13T11:01:31.344Z,14.50
2022-11-13T11:03:58.044Z,12.23
2022-11-13T11:07:05.000Z,12.80
2022-11-13T11:09:29.915Z,14.00
2022-11-13T11:12:19.031Z,12.88
2022-11-13T11:14:59.827Z,13.30
2022-11-13T11:17:38.292Z,12.88
2022-11-13T11:20:13.841Z,12.63
2022-11-13T11:22:41.504Z,12.55
2022-11-13T11:25:43.564Z,12.38
2022-11-13T11:28:20.521Z,11.95
2022-11-13T11:30:56.097Z,14.27
2022-11-13T11:33:35.615Z,13.93
2022-11-13T11:36:28.860Z,14.23
2022-11-13T11:39:17.016Z,11.82
2022-11-13T11:41:49.824Z,13.65
2022-11-13T11:44:31.141Z,12.95
2022-11-13T11:46:58.923Z,12.23
2022-11-13T11:49:26.845Z,13.88
2022-11-13T11:52:11.901Z,13.27
2022-11-13T11:54:46.875Z,13.48
2022-11-13T11:57:32.058Z,12.98
2022-11-13T12:00:21.818Z,11.75
2022-11-13T12:03:09.940Z,12.52
2022-11-13T12:06:08.665Z,13.43
2022-11-13T12:08:51.076Z,13.43
2022-11-13T12:11:41.412Z,11.70
2022-11-13T12:14:13.468Z,11.93
2022-11-13T12:16:42.691Z,13.90
2022-11-13T12:19:23.051Z,12.48
2022-11-13T12:22:13.377Z,11.30
2022-11-13T12:24:48.856Z,11.23
2022-11-13T12:27:53.618Z,8.07
2022-11-13T12:30:22.710Z,6.75
2022-11-13T12:33:12.675Z,6.88
2022-11-13T12:35:39.695Z,6.32
2022-11-13T12:38:23.501Z,6.80
2022-11-13T12:41:02.114Z,6.03
2022-11-13T12:43:49.038Z,9.73
2022-11-13T12:46:16.095Z,6.28
2022-11-13T12:48:45.600Z,6.03
2022-11-13T12:51:15.289Z,6.93
2022-11-13T12:53:44.872Z,7.35
2022-11-13T12:56:24.912Z,11.93
2022-11-13T12:59:28.538Z,17.63
2022-11-13T13:01:50.602Z,11.55
2022-11-13T13:05:00.998Z,9.02
2022-11-13T13:07:44.155Z,6.38
2022-11-13T13:10:20.367Z,7.35
2022-11-13T13:13:05.656Z,10.27
2022-11-13T13:15:38.510Z,7.80
2022-11-13T13:18:24.507Z,14.75
2022-11-13T13:20:57.021Z,8.07
2022-11-13T13:23:32.507Z,7.15
2022-11-13T13:26:23.614Z,8.57
2022-11-13T13:28:58.231Z,7.15
2022-11-13T13:31:41.774Z,8.05
2022-11-13T13:34:28.924Z,8.80
2022-11-13T13:37:23.328Z,7.07
2022-11-13T13:40:19.894Z,7.30
2022-11-13T13:43:12.673Z,6.60
2022-11-13T13:46:06.536Z,8.23
2022-11-13T13:48:40.023Z,6.97
2022-11-13T13:51:26.736Z,7.80
2022-11-13T13:53:55.196Z,6.65
2022-11-13T13:56:23.175Z,7.68
2022-11-13T13:58:53.404Z,7.63
2022-11-13T14:01:52.797Z,7.75
2022-11-13T14:04:24.026Z,7.72
2022-11-13T14:06:59.850Z,8.07
2022-11-13T14:09:28.906Z,7.55
2022-11-13T14:12:18.105Z,9.65
2022-11-13T14:14:44.946Z,10.48
2022-11-13T14:17:13.140Z,6.75
2022-11-13T14:19:50.012Z,11.07
2022-11-13T14:22:22.293Z,8.63
2022-11-13T14:24:55.656Z,17.27
2022-11-13T14:27:26.725Z,9.50
2022-11-13T14:29:57.108Z,12.13
2022-11-13T14:32:33.421Z,24.27
2022-11-13T14:35:05.088Z,8.20
2022-11-13T14:37:35.954Z,18.58
2022-11-13T14:42:45.705Z,6.50
2022-11-13T14:45:17.126Z,7.57
2022-11-13T14:47:44.554Z,8.23
2022-11-13T14:50:26.707Z,11.50
2022-11-13T14:53:00.591Z,12.27
2022-11-13T14:55:51.819Z,8.50
2022-11-13T14:58:32.344Z,9.23
2022-11-13T15:01:21.126Z,7.47
2022-11-13T15:03:50.127Z,9.95
2022-11-13T15:06:23.131Z,8.25
2022-11-13T15:08:53.913Z,8.45
2022-11-13T15:11:22.853Z,8.05
2022-11-13T15:13:50.147Z,7.20
2022-11-13T15:16:24.887Z,13.27
2022-11-13T15:18:54.239Z,9.73
2022-11-13T15:21:23.386Z,11.38
2022-11-13T15:23:49.885Z,13.52
2022-11-13T15:26:16.516Z,9.52
2022-11-13T15:28:43.063Z,8.25
2022-11-13T15:31:30.188Z,9.00
2022-11-13T15:33:56.785Z,8.27
2022-11-13T15:36:23.888Z,7.88
2022-11-13T15:38:50.575Z,7.30
2022-11-13T15:41:22.342Z,9.77
2022-11-13T15:43:54.321Z,10.23
2022-11-13T15:46:28.055Z,8.07
2022-11-13T15:48:56.046Z,16.33
2022-11-13T15:51:37.329Z,30.25
2022-11-13T15:54:19.254Z,9.40
2022-11-13T15:56:48.019Z,8.38
2022-11-13T15:59:15.163Z,8.07
2022-11-13T16:01:42.131Z,9.60
2022-11-13T16:04:09.442Z,10.18
2022-11-13T16:06:36.163Z,10.32
2022-11-13T16:09:04.544Z,10.25
2022-11-13T16:11:33.094Z,9.43
2022-11-13T16:14:00.494Z,10.45
2022-11-13T16:16:37.029Z,14.20
2022-11-13T16:19:04.419Z,11.65
2022-11-13T16:21:33.681Z,11.13
2022-11-13T16:24:00.235Z,10.38
2022-11-13T16:26:27.222Z,10.70
2022-11-13T16:31:41.551Z,13.82
2022-11-13T16:34:07.986Z,13.63
2022-11-13T16:36:34.494Z,11.50
2022-11-13T16:39:01.138Z,14.43
2022-11-13T16:41:27.588Z,22.20
2022-11-13T16:43:54.031Z,18.27
2022-11-13T16:46:27.472Z,14.98
2022-11-13T16:48:53.991Z,16.65
2022-11-13T16:51:20.767Z,15.70
2022-11-13T16:53:47.332Z,15.10
2022-11-13T16:56:17.182Z,14.25
2022-11-13T16:58:43.959Z,14.07
2022-11-13T17:01:19.008Z,16.88
2022-11-13T17:03:46.447Z,16.63
2022-11-13T17:06:21.799Z,16.73
2022-11-13T17:08:50.988Z,14.27
2022-11-13T17:11:17.978Z,16.10
2022-11-13T17:13:49.800Z,18.33
2022-11-13T17:16:17.144Z,16.38
2022-11-13T17:18:43.863Z,15.93
2022-11-13T17:21:11.471Z,17.38
2022-11-13T17:23:38.222Z,17.10
2022-11-13T17:26:05.291Z,19.10
2022-11-13T17:28:32.045Z,22.50
2022-11-13T17:31:08.323Z,20.80
2022-11-13T17:33:35.124Z,22.35
2022-11-13T17:36:02.603Z,19.73
2022-11-13T17:38:29.462Z,18.40
2022-11-13T17:41:09.441Z,21.65
2022-11-13T17:43:37.444Z,19.90
2022-11-13T17:46:05.251Z,23.23
2022-11-13T17:48:34.717Z,19.63
2022-11-13T17:51:04.569Z,20.67
2022-11-13T17:53:31.895Z,23.00
2022-11-13T17:56:01.202Z,18.67
2022-11-13T17:58:29.398Z,22.02
2022-11-13T18:01:07.117Z,23.95
2022-11-13T18:03:34.063Z,20.02
2022-11-13T18:06:13.247Z,22.33
2022-11-13T18:08:41.542Z,20.33
2022-11-13T18:11:17.551Z,22.27
2022-11-13T18:13:47.710Z,20.50
2022-11-13T18:16:20.970Z,21.45
2022-11-13T18:18:50.230Z,20.15
2022-11-13T18:21:23.806Z,25.08
2022-11-13T18:23:59.472Z,23.67
2022-11-13T18:26:27.073Z,24.73
2022-11-13T18:28:53.947Z,22.70
2022-11-13T18:31:21.441Z,22.95
2022-11-13T18:33:50.702Z,22.98
2022-11-13T18:36:18.033Z,23.40
2022-11-13T18:38:45.252Z,22.83
2022-11-13T18:41:22.532Z,24.85
2022-11-13T18:43:51.033Z,24.65
2022-11-13T18:46:20.280Z,24.13
2022-11-13T18:48:47.919Z,24.17
2022-11-13T18:51:18.886Z,25.45
2022-11-13T18:53:48.399Z,24.75
2022-11-13T18:56:20.670Z,32.17
2022-11-13T18:58:48.821Z,26.13
2022-11-13T19:01:22.265Z,32.22
2022-11-13T19:04:08.658Z,26.05
2022-11-13T19:06:38.732Z,30.00
2022-11-13T19:09:08.054Z,32.92
2022-11-13T19:11:34.865Z,28.65
2022-11-13T19:14:01.595Z,28.42
2022-11-13T19:16:36.900Z,28.15
2022-11-13T19:19:09.315Z,26.50
2022-11-13T19:21:36.579Z,28.30
2022-11-13T19:24:04.117Z,27.55
2022-11-13T19:26:30.671Z,28.63
2022-11-13T19:28:57.858Z,27.90
2022-11-13T19:31:27.071Z,29.05
2022-11-13T19:33:58.928Z,31.83
2022-11-13T19:36:28.175Z,27.55
2022-11-13T19:38:55.955Z,32.78
2022-11-13T19:41:26.522Z,39.72
2022-11-13T19:43:53.116Z,34.88
2022-11-13T19:46:20.691Z,32.67
2022-11-13T19:48:49.011Z,31.17
2022-11-13T19:51:20.446Z,34.08
2022-11-13T19:53:47.448Z,33.25
2022-11-13T19:56:18.293Z,32.00
2022-11-13T19:58:47.032Z,30.63
2022-11-13T20:01:16.979Z,31.23
2022-11-13T20:03:43.582Z,29.15
2022-11-13T20:06:12.626Z,29.48
2022-11-13T20:08:39.465Z,33.58
2022-11-13T20:11:10.081Z,31.48
2022-11-13T20:13:38.284Z,29.92
2022-11-13T20:16:06.799Z,30.08
2022-11-13T20:18:33.467Z,28.15
2022-11-13T20:21:00.601Z,31.23
2022-11-13T20:23:27.343Z,35.30
2022-11-13T20:26:00.177Z,33.30
2022-11-13T20:28:31.447Z,34.00
2022-11-13T20:31:22.520Z,34.75
2022-11-13T20:33:54.299Z,42.78
2022-11-13T20:36:21.497Z,37.35
2022-11-13T20:38:53.197Z,36.17
2022-11-13T20:41:24.026Z,35.08
2022-11-13T20:43:52.486Z,30.52
2022-11-13T20:46:20.722Z,37.75
2022-11-13T20:48:47.329Z,37.65
2022-11-13T20:51:17.174Z,38.38
2022-11-13T20:53:44.195Z,39.88
2022-11-13T20:56:11.490Z,34.80
2022-11-13T20:58:37.989Z,35.08
2022-11-13T21:01:18.994Z,36.00
2022-11-13T21:03:46.477Z,36.72
2022-11-13T21:06:19.031Z,39.20
2022-11-13T21:08:45.987Z,41.22
2022-11-13T21:11:15.684Z,42.22
2022-11-13T21:13:42.291Z,45.38
2022-11-13T21:16:09.810Z,44.67
2022-11-13T21:18:36.410Z,47.38
2022-11-13T21:21:14.069Z,54.88
2022-11-13T21:26:08.593Z,41.00
2022-11-13T21:28:35.895Z,38.05
2022-11-13T21:31:08.626Z,39.83
2022-11-13T21:33:41.132Z,38.92
2022-11-13T21:36:18.057Z,39.60
2022-11-13T21:38:45.105Z,36.50
2022-11-13T21:41:23.396Z,35.92
2022-11-13T21:44:03.322Z,37.58
2022-11-13T21:46:32.456Z,45.95
2022-11-13T21:49:02.504Z,41.92
2022-11-13T21:51:30.012Z,38.85
2022-11-13T21:53:57.116Z,36.20
2022-11-13T21:56:24.981Z,38.65
2022-11-13T21:58:52.776Z,36.10
2022-11-13T22:01:19.678Z,37.33
2022-11-13T22:03:46.170Z,31.92
2022-11-13T22:06:14.999Z,32.63
2022-11-13T22:08:42.851Z,39.17
2022-11-13T22:11:10.576Z,32.95
2022-11-13T22:13:37.528Z,31.55
2022-11-13T22:16:06.384Z,36.28
2022-11-13T22:18:33.803Z,32.67
2022-11-13T22:21:05.872Z,30.27
2022-11-13T22:23:33.767Z,27.00
2022-11-13T22:26:05.596Z,30.00
2022-11-13T22:28:33.687Z,30.13
2022-11-13T22:31:01.080Z,27.83
2022-11-13T22:33:30.079Z,26.50
2022-11-13T22:36:04.486Z,27.30
2022-11-13T22:38:31.389Z,25.75
2022-11-13T22:41:08.074Z,27.50
2022-11-13T22:43:39.889Z,27.60
2022-11-13T22:46:11.600Z,29.27
2022-11-13T22:48:39.891Z,29.92
2022-11-13T22:51:08.123Z,30.10
2022-11-13T22:53:34.901Z,29.38
2022-11-13T22:56:07.687Z,32.63
2022-11-13T22:58:34.296Z,32.40
2022-11-13T23:01:28.810Z,30.17
2022-11-13T23:03:57.010Z,27.33
2022-11-13T23:06:27.760Z,25.45
2022-11-13T23:08:56.422Z,25.67
2022-11-13T23:11:38.609Z,27.60
2022-11-13T23:14:10.887Z,26.20
2022-11-13T23:16:37.753Z,28.65
2022-11-13T23:19:05.420Z,25.50
2022-11-13T23:21:31.935Z,27.58
2022-11-13T23:24:02.108Z,25.65
2022-11-13T23:26:28.721Z,28.98
2022-11-13T23:28:59.037Z,28.05
2022-11-13T23:31:25.582Z,31.00
2022-11-13T23:33:52.136Z,29.77
2022-11-13T23:36:21.149Z,31.63
2022-11-13T23:38:48.426Z,29.10
2022-11-13T23:41:15.045Z,28.77
2022-11-13T23:46:28.370Z,26.20
2022-11-13T23:48:54.940Z,28.38
2022-11-13T23:51:21.437Z,28.30
2022-11-13T23:53:48.106Z,24.80
2022-11-13T23:56:15.255Z,24.63
2022-11-13T23:58:41.889Z,26.88
